Big Bear Station Historical Data
Daily Summary for June 21, 2017 Units:  English    Metric   Both
« Previous Day
Next Day »
Daily Weekly Monthly Yearly Custom
  High: Low: Average:
Temperature: 91.4 °F 52.7 °F 71.3 °F
Dew Point: 47.6 °F 21.1 °F 30.6 °F
Humidity: 47 % 10 % 25 %
Wind Speed: 11.4 mph 0.0 mph 2.1 mph
Wind Gust: -999.0 mph - -
Wind:- - SSW
Pressure: 30.24 in 30.14 in -
Precipitation: 0.00 in    
Historical Graphs
 
 
Tabular Data for June 21, 2017
Time Temperature Dew Point Pressure Wind Wind Speed Wind Gust Humidity Rainfall Rate (Hourly)
00:06 57.4 °F 33.9 °F 30.24 in South 1.7 mph -999.0 mph 41 % 0 in
00:21 57.7 °F 29.5 °F 30.23 in Calm   -999.0 mph 34 % 0 in
00:36 58.1 °F 26.8 °F 30.23 in SSE 1.7 mph -999.0 mph 30 % 0 in
00:51 58.8 °F 21.1 °F 30.23 in South 1.7 mph -999.0 mph 23 % 0 in
01:07 58.8 °F 24.9 °F 30.23 in South 2.2 mph -999.0 mph 27 % 0 in
01:22 58.3 °F 22.6 °F 30.22 in South 1.7 mph -999.0 mph 25 % 0 in
01:38 57.9 °F 23.2 °F 30.22 in Calm   -999.0 mph 26 % 0 in
01:53 57.7 °F 25.6 °F 30.22 in Calm   -999.0 mph 29 % 0 in
02:08 57.2 °F 28.3 °F 30.22 in Calm   -999.0 mph 33 % 0 in
02:23 56.8 °F 26.5 °F 30.22 in South 1.7 mph -999.0 mph 31 % 0 in
02:38 56.1 °F 24.3 °F 30.21 in South 2.2 mph -999.0 mph 29 % 0 in
02:54 55.6 °F 24.6 °F 30.21 in South 2.2 mph -999.0 mph 30 % 0 in
03:09 55.2 °F 23.5 °F 30.21 in Calm   -999.0 mph 29 % 0 in
03:24 55.0 °F 28.5 °F 30.21 in Calm   -999.0 mph 36 % 0 in
03:39 54.5 °F 33.0 °F 30.21 in Calm   -999.0 mph 44 % 0 in
03:54 54.1 °F 34.3 °F 30.20 in Calm   -999.0 mph 47 % 0 in
04:10 53.8 °F 32.9 °F 30.20 in Calm   -999.0 mph 45 % 0 in
04:25 53.6 °F 28.6 °F 30.20 in Calm   -999.0 mph 38 % 0 in
04:40 53.1 °F 32.9 °F 30.20 in Calm   -999.0 mph 46 % 0 in
04:55 52.7 °F 30.2 °F 30.20 in Calm   -999.0 mph 42 % 0 in
05:10 52.7 °F 27.8 °F 30.20 in South 2.2 mph -999.0 mph 38 % 0 in
05:26 52.7 °F 24.4 °F 30.20 in South 1.7 mph -999.0 mph 33 % 0 in
05:41 54.0 °F 23.2 °F 30.20 in South 1.7 mph -999.0 mph 30 % 0 in
05:56 53.1 °F 24.0 °F 30.20 in South 1.7 mph -999.0 mph 32 % 0 in
06:11 53.4 °F 28.4 °F 30.20 in Calm   -999.0 mph 38 % 0 in
06:27 52.9 °F 28.6 °F 30.20 in SSE 2.2 mph -999.0 mph 39 % 0 in
06:42 54.0 °F 27.6 °F 30.20 in Calm   -999.0 mph 36 % 0 in
06:57 55.2 °F 31.3 °F 30.20 in SSE 1.7 mph -999.0 mph 40 % 0 in
07:12 55.4 °F 32.1 °F 30.20 in Calm   -999.0 mph 41 % 0 in
07:27 56.5 °F 35.4 °F 30.21 in SSE 1.1 mph -999.0 mph 45 % 0 in
07:43 57.7 °F 36.5 °F 30.21 in Calm   -999.0 mph 45 % 0 in
07:58 60.1 °F 33.0 °F 30.21 in Calm   -999.0 mph 36 % 0 in
08:13 69.6 °F 22.8 °F 30.21 in NNE 2.7 mph -999.0 mph 17 % 0 in
08:28 71.8 °F 23.2 °F 30.21 in SSE 3.2 mph -999.0 mph 16 % 0 in
08:43 74.3 °F 22.0 °F 30.21 in ESE 4.7 mph -999.0 mph 14 % 0 in
08:59 75.0 °F 22.6 °F 30.21 in WSW 1.7 mph -999.0 mph 14 % 0 in
09:14 75.9 °F 21.5 °F 30.21 in SSE 3.2 mph -999.0 mph 13 % 0 in
09:29 76.6 °F 23.8 °F 30.21 in Calm   -999.0 mph 14 % 0 in
09:44 78.4 °F 23.5 °F 30.21 in SE 3.2 mph -999.0 mph 13 % 0 in
09:59 79.3 °F 26.0 °F 30.21 in North 3.2 mph -999.0 mph 14 % 0 in
10:15 80.4 °F 23.1 °F 30.21 in SSE 5.3 mph -999.0 mph 12 % 0 in
10:30 80.6 °F 25.2 °F 30.21 in NNW 4.7 mph -999.0 mph 13 % 0 in
10:45 81.3 °F 25.8 °F 30.22 in East 3.2 mph -999.0 mph 13 % 0 in
11:00 82.2 °F 24.5 °F 30.22 in West 3.2 mph -999.0 mph 12 % 0 in
11:15 83.5 °F 25.5 °F 30.22 in SSE 7.3 mph -999.0 mph 12 % 0 in
11:31 84.6 °F 24.3 °F 30.21 in Calm   -999.0 mph 11 % 0 in
11:46 85.5 °F 25.0 °F 30.22 in SE 4.7 mph -999.0 mph 11 % 0 in
12:01 86.0 °F 25.4 °F 30.21 in NE 3.7 mph -999.0 mph 11 % 0 in
12:17 87.8 °F 26.8 °F 30.21 in SE 4.2 mph -999.0 mph 11 % 0 in
12:32 88.2 °F 24.8 °F 30.21 in SE 6.8 mph -999.0 mph 10 % 0 in
12:47 88.3 °F 24.8 °F 30.21 in SSW 4.2 mph -999.0 mph 10 % 0 in
13:02 90.1 °F 26.2 °F 30.21 in ESE 3.7 mph -999.0 mph 10 % 0 in
13:18 88.3 °F 27.1 °F 30.21 in SSW 4.7 mph -999.0 mph 11 % 0 in
13:33 90.7 °F 29.0 °F 30.20 in SSE 4.7 mph -999.0 mph 11 % 0 in
13:48 91.4 °F 31.7 °F 30.20 in SSW 2.7 mph -999.0 mph 12 % 0 in
14:03 90.1 °F 30.7 °F 30.20 in WSW 1.1 mph -999.0 mph 12 % 0 in
14:18 90.9 °F 35.1 °F 30.20 in NW 6.8 mph -999.0 mph 14 % 0 in
14:34 89.2 °F 33.8 °F 30.20 in South 4.7 mph -999.0 mph 14 % 0 in
14:49 90.1 °F 34.5 °F 30.19 in NW 6.3 mph -999.0 mph 14 % 0 in
15:05 89.4 °F 33.9 °F 30.19 in SW 1.7 mph -999.0 mph 14 % 0 in
15:20 89.8 °F 37.6 °F 30.18 in WNW 3.7 mph -999.0 mph 16 % 0 in
15:35 89.8 °F 36.0 °F 30.18 in SSW 5.3 mph -999.0 mph 15 % 0 in
15:50 88.9 °F 33.6 °F 30.18 in South 3.2 mph -999.0 mph 14 % 0 in
16:05 89.1 °F 33.7 °F 30.17 in NNW 4.7 mph -999.0 mph 14 % 0 in
16:21 85.8 °F 31.1 °F 30.17 in SSE 11.4 mph -999.0 mph 14 % 0 in
16:36 87.4 °F 34.1 °F 30.16 in South 2.7 mph -999.0 mph 15 % 0 in
16:51 87.4 °F 30.5 °F 30.16 in SW 1.7 mph -999.0 mph 13 % 0 in
17:06 88.2 °F 36.4 °F 30.16 in NW 1.7 mph -999.0 mph 16 % 0 in
17:22 87.3 °F 35.6 °F 30.15 in South 3.7 mph -999.0 mph 16 % 0 in
17:37 87.6 °F 40.3 °F 30.15 in South 1.1 mph -999.0 mph 19 % 0 in
17:53 86.0 °F 37.6 °F 30.14 in SSE 4.7 mph -999.0 mph 18 % 0 in
18:08 85.3 °F 38.4 °F 30.14 in SSE 4.2 mph -999.0 mph 19 % 0 in
18:23 85.5 °F 37.2 °F 30.14 in South 2.7 mph -999.0 mph 18 % 0 in
18:38 84.7 °F 36.5 °F 30.14 in SW 2.2 mph -999.0 mph 18 % 0 in
18:54 85.5 °F 32.6 °F 30.14 in South 3.7 mph -999.0 mph 15 % 0 in
19:09 85.8 °F 31.1 °F 30.15 in West 1.1 mph -999.0 mph 14 % 0 in
19:25 82.4 °F 34.6 °F 30.15 in West 1.1 mph -999.0 mph 18 % 0 in
19:40 76.5 °F 47.6 °F 30.15 in NW 2.2 mph -999.0 mph 36 % 0 in
19:56 73.0 °F 45.9 °F 30.15 in NW 3.2 mph -999.0 mph 38 % 0 in
20:11 71.2 °F 45.0 °F 30.15 in Calm   -999.0 mph 39 % 0 in
20:26 69.8 °F 44.4 °F 30.15 in Calm   -999.0 mph 40 % 0 in
20:41 68.4 °F 41.8 °F 30.15 in Calm   -999.0 mph 38 % 0 in
20:57 66.7 °F 35.9 °F 30.15 in Calm   -999.0 mph 32 % 0 in
21:12 65.5 °F 34.1 °F 30.15 in Calm   -999.0 mph 31 % 0 in
21:27 64.4 °F 30.6 °F 30.15 in Calm   -999.0 mph 28 % 0 in
21:42 63.9 °F 27.4 °F 30.15 in Calm   -999.0 mph 25 % 0 in
21:57 63.7 °F 27.2 °F 30.16 in Calm   -999.0 mph 25 % 0 in
22:13 63.3 °F 31.3 °F 30.16 in Calm   -999.0 mph 30 % 0 in
22:28 62.6 °F 31.5 °F 30.16 in Calm   -999.0 mph 31 % 0 in
22:43 62.1 °F 37.5 °F 30.16 in Calm   -999.0 mph 40 % 0 in
22:58 62.1 °F 37.5 °F 30.16 in SSW 2.2 mph -999.0 mph 40 % 0 in
23:13 61.5 °F 36.3 °F 30.16 in Calm   -999.0 mph 39 % 0 in
23:29 62.1 °F 36.8 °F 30.17 in South 2.7 mph -999.0 mph 39 % 0 in
23:44 60.8 °F 33.7 °F 30.17 in Calm   -999.0 mph 36 % 0 in
23:59 60.1 °F 35.1 °F 30.17 in Calm   -999.0 mph 39 % 0 in
Big Bear CA Weather
Compliments of Weather Underground - 1.5 mb